Kununurra Airport
YPKU : now visible

Airfield :











YOU CAN JOIN US ON...

 
LOGIN :

Register | Disclaimer

   EN    FR    IT 

 









Legend :    VFR   Marginal VFR   IFR   Intensive IFR   Very Intensive IFR
Visi :
Ceiling :
>= 8 km
>= 3000ft
5 to 8 km
1000 to 3000 ft
1500m to 5 km
500 to 1000 ft
800 to 1500m
200 to 500 ft
< 800m
< 200 ft
Symbols :   Thunderstorms  Fog  Heavy snow  Heavy precipitations  Wind > 20 kt






- Airport Elevation : 145 ft
- IATA code : KNX


YPKU - Kununurra

CURRENT METAR :
  • 271412Z AUTO 17015G25KT 9999 // SCT019 BKN026 OVC031 26/24 Q1000

EXPIRED METARs :
  • 271400Z AUTO 17015KT 9999 // BKN027 BKN032 OVC040 26/24 Q1000
  • 271330Z AUTO 17015KT 9999 // SCT013 BKN027 BKN031 25/24 Q1000
  • 271300Z AUTO 17014KT 7000 // SCT015 BKN022 OVC028 25/24 Q1000
  • 271254Z AUTO 17016KT 9000 // SCT013 SCT018 OVC024 25/24 Q1001
  • 271237Z AUTO 16015G27KT 7000 // BKN015 OVC022 OVC028 25/24 Q1000
  • 271230Z AUTO 16016KT 7000 // BKN015 BKN019 OVC027 25/24 Q1000
  • 271223Z AUTO 17014KT 6000 // BKN017 BKN021 OVC028 25/24 Q1000
  • 271206Z AUTO 17015KT 6000 // SCT019 BKN027 OVC036 26/24 Q1000

TAF TAF YPKU
Valid from the 27 at 14:00 until the 28 at 02:00 UTC


271325Z 2714/2802 18014KT 7000 -RA BKN020 BKN040
TEMPO 2714/2802 VRB20G45KT 1000 TSRA BKN005 SCT050CB



MET'MAP, your aeronautical weather chart ! - Copyright ORBIFLY December 2007 - Disclaimer

ORBIFLY MET'MAP TEAM :

Programming & Development : Alexandra Zaïnal
Concept & original design : Baudouin d'Aumeries
Assistance for programming : Marc-Olivier Méhu
Technical & hardware support : Manuel Goepfert

Contact : metmap@orbifly.com




SOURCES & CREDITS :

   NOAA       Earth
Advisory